createdAt,value
2019-04-23T00:03:47.598Z,16.80
2019-04-23T00:06:18.992Z,16.80
2019-04-23T00:08:48.735Z,16.80
2019-04-23T00:11:24.049Z,16.70
2019-04-23T00:13:49.866Z,16.60
2019-04-23T00:16:22.232Z,16.70
2019-04-23T00:21:20.497Z,16.50
2019-04-23T00:26:35.222Z,16.30
2019-04-23T00:31:29.669Z,16.30
2019-04-23T00:33:52.731Z,16.40
2019-04-23T00:36:29.430Z,16.40
2019-04-23T00:38:49.903Z,16.30
2019-04-23T00:41:24.784Z,16.30
2019-04-23T00:43:54.956Z,16.20
2019-04-23T00:46:22.178Z,16.20
2019-04-23T00:51:18.488Z,16.20
2019-04-23T00:53:54.614Z,16.00
2019-04-23T00:58:55.919Z,15.90
2019-04-23T01:01:18.560Z,15.90
2019-04-23T01:03:53.436Z,16.00
2019-04-23T01:06:24.084Z,16.00
2019-04-23T01:08:52.296Z,15.90
2019-04-23T01:11:21.235Z,15.60
2019-04-23T01:13:49.610Z,15.60
2019-04-23T01:16:14.984Z,15.50
2019-04-23T01:18:58.394Z,15.70
2019-04-23T01:21:22.478Z,15.60
2019-04-23T01:24:03.688Z,15.50
2019-04-23T01:27:10.476Z,15.50
2019-04-23T01:29:29.239Z,15.50
2019-04-23T01:32:01.508Z,15.40
2019-04-23T01:34:31.430Z,15.40
2019-04-23T01:36:56.382Z,15.30
2019-04-23T01:39:23.276Z,15.30
2019-04-23T01:42:04.122Z,15.30
2019-04-23T01:44:32.780Z,15.50
2019-04-23T01:46:57.630Z,15.30
2019-04-23T01:49:30.986Z,15.20
2019-04-23T01:54:25.566Z,15.10
2019-04-23T01:56:56.707Z,15.00
2019-04-23T01:59:29.728Z,15.00
2019-04-23T02:01:58.210Z,14.90
2019-04-23T02:04:28.434Z,14.90
2019-04-23T02:06:59.032Z,14.90
2019-04-23T02:09:25.510Z,14.80
2019-04-23T02:12:02.980Z,15.00
2019-04-23T02:14:32.142Z,14.90
2019-04-23T02:16:56.408Z,14.80
2019-04-23T02:19:32.806Z,14.70
2019-04-23T02:22:06.031Z,14.70
2019-04-23T02:24:41.417Z,14.80
2019-04-23T02:27:11.759Z,14.60
2019-04-23T02:32:10.982Z,14.70
2019-04-23T02:34:52.692Z,14.70
2019-04-23T02:37:28.585Z,14.70
2019-04-23T02:39:51.894Z,14.80
2019-04-23T02:42:30.413Z,14.80
2019-04-23T02:52:16.072Z,14.50
2019-04-23T02:54:50.606Z,14.50
2019-04-23T02:57:13.954Z,14.20
2019-04-23T03:04:49.975Z,14.40
2019-04-23T03:14:55.773Z,14.10
2019-04-23T03:17:15.079Z,14.10
2019-04-23T03:22:46.021Z,14.10
2019-04-23T03:25:12.889Z,14.20
2019-04-23T03:27:37.515Z,14.10
2019-04-23T03:30:43.081Z,14.00
2019-04-23T03:40:13.207Z,13.90
2019-04-23T03:45:20.881Z,13.70
2019-04-23T03:47:41.317Z,13.70
2019-04-23T03:55:10.405Z,13.70
2019-04-23T04:03:02.137Z,13.80
2019-04-23T04:05:05.810Z,13.80
2019-04-23T04:09:59.467Z,13.60
2019-04-23T04:12:35.332Z,13.50
2019-04-23T04:18:01.205Z,13.50
2019-04-23T04:25:11.314Z,13.40
2019-04-23T04:27:45.625Z,13.40
2019-04-23T04:32:36.711Z,13.30
2019-04-23T04:40:10.983Z,13.20
2019-04-23T04:42:39.147Z,13.20
2019-04-23T04:45:14.130Z,13.10
2019-04-23T04:47:44.537Z,13.20
2019-04-23T04:50:04.767Z,13.20
2019-04-23T04:52:48.676Z,13.30
2019-04-23T04:55:14.096Z,13.20
2019-04-23T04:57:52.632Z,13.10
2019-04-23T05:00:12.470Z,12.90
2019-04-23T05:05:20.430Z,12.90
2019-04-23T05:12:45.268Z,13.10
2019-04-23T05:17:59.634Z,13.10
2019-04-23T05:23:02.800Z,13.20
2019-04-23T05:25:17.529Z,13.10
2019-04-23T05:30:29.192Z,13.00
2019-04-23T05:32:50.518Z,13.10
2019-04-23T05:35:39.929Z,13.20
2019-04-23T05:40:30.670Z,13.30
2019-04-23T05:42:52.091Z,13.40
2019-04-23T05:45:23.562Z,13.40
2019-04-23T05:50:29.169Z,13.30
2019-04-23T05:52:52.904Z,13.30
2019-04-23T05:55:18.762Z,13.40
2019-04-23T05:57:52.018Z,13.40
2019-04-23T06:00:28.894Z,13.50
2019-04-23T06:02:59.214Z,13.50
2019-04-23T06:05:25.070Z,13.40
2019-04-23T06:10:18.143Z,13.40
2019-04-23T06:12:50.702Z,13.40
2019-04-23T06:15:21.994Z,13.60
2019-04-23T06:17:55.859Z,13.60
2019-04-23T06:20:29.570Z,13.60
2019-04-23T06:23:01.154Z,13.60
2019-04-23T06:27:57.377Z,13.60
2019-04-23T06:30:25.781Z,13.50
2019-04-23T06:32:51.569Z,13.60
2019-04-23T06:35:27.099Z,13.60
2019-04-23T06:40:22.015Z,13.80
2019-04-23T06:43:01.264Z,13.80
2019-04-23T06:45:30.645Z,13.80
2019-04-23T06:48:01.798Z,13.90
2019-04-23T06:50:30.200Z,13.90
2019-04-23T06:52:54.560Z,13.80
2019-04-23T06:55:31.872Z,13.90
2019-04-23T06:58:08.695Z,13.90
2019-04-23T07:00:29.485Z,13.90
2019-04-23T07:03:00.333Z,14.00
2019-04-23T07:05:29.713Z,14.00
2019-04-23T07:08:02.775Z,14.00
2019-04-23T07:10:34.963Z,13.90
2019-04-23T07:13:02.760Z,14.10
2019-04-23T07:15:42.405Z,14.10
2019-04-23T07:18:04.154Z,14.20
2019-04-23T07:20:37.913Z,14.30
2019-04-23T07:23:08.349Z,14.50
2019-04-23T07:25:33.981Z,14.60
2019-04-23T07:28:09.925Z,14.70
2019-04-23T07:30:33.222Z,14.80
2019-04-23T07:33:07.346Z,14.90
2019-04-23T07:35:31.623Z,15.00
2019-04-23T07:38:32.742Z,15.10
2019-04-23T07:41:03.312Z,15.20
2019-04-23T07:43:28.256Z,15.10
2019-04-23T07:46:10.284Z,15.20
2019-04-23T07:48:27.612Z,15.40
2019-04-23T07:51:06.189Z,15.60
2019-04-23T07:53:44.057Z,15.80
2019-04-23T07:56:07.368Z,15.70
2019-04-23T07:58:33.489Z,15.90
2019-04-23T08:01:06.910Z,16.00
2019-04-23T08:03:38.900Z,16.20
2019-04-23T08:06:05.929Z,16.40
2019-04-23T08:08:39.662Z,16.50
2019-04-23T08:11:30.935Z,16.30
2019-04-23T08:14:00.566Z,16.50
2019-04-23T08:16:23.071Z,16.60
2019-04-23T08:18:49.456Z,16.50
2019-04-23T08:21:16.226Z,16.60
2019-04-23T08:23:49.643Z,16.60
2019-04-23T08:31:41.486Z,16.50
2019-04-23T08:34:17.024Z,16.50
2019-04-23T08:39:03.489Z,16.90
2019-04-23T08:41:46.242Z,17.10
2019-04-23T08:44:38.710Z,17.30
2019-04-23T08:47:03.246Z,17.20
2019-04-23T08:49:36.411Z,17.30
2019-04-23T08:52:10.185Z,17.10
2019-04-23T08:54:42.992Z,17.20
2019-04-23T08:57:10.940Z,17.40
2019-04-23T08:59:38.925Z,17.60
2019-04-23T09:02:18.114Z,17.80
2019-04-23T09:07:13.663Z,17.80
2019-04-23T09:09:34.708Z,17.80
2019-04-23T09:14:32.260Z,17.30
2019-04-23T09:17:09.825Z,17.30
2019-04-23T09:19:42.913Z,17.20
2019-04-23T09:22:09.244Z,17.20
2019-04-23T09:24:33.299Z,17.20
2019-04-23T09:27:07.738Z,17.30
2019-04-23T09:34:54.136Z,17.70
2019-04-23T09:37:19.447Z,17.80
2019-04-23T09:40:04.843Z,17.80
2019-04-23T09:45:22.743Z,17.80
2019-04-23T09:47:58.619Z,17.80
2019-04-23T09:53:07.888Z,17.90
2019-04-23T09:55:32.173Z,18.10
2019-04-23T09:57:59.152Z,18.10
2019-04-23T10:00:31.551Z,18.20
2019-04-23T10:02:41.257Z,18.20
2019-04-23T10:05:11.062Z,18.40
2019-04-23T10:07:39.678Z,18.50
2019-04-23T10:09:57.361Z,18.60
2019-04-23T10:12:26.254Z,18.80
2019-04-23T10:15:05.424Z,18.80
2019-04-23T10:17:26.162Z,18.80
2019-04-23T10:19:55.158Z,18.70
2019-04-23T10:22:25.027Z,18.70
2019-04-23T10:24:55.109Z,18.80
2019-04-23T10:27:25.045Z,18.80
2019-04-23T10:29:54.198Z,19.00
2019-04-23T10:32:22.796Z,19.30
2019-04-23T10:35:04.991Z,19.50
2019-04-23T10:37:31.948Z,19.90
2019-04-23T10:39:58.206Z,19.80
2019-04-23T10:42:21.932Z,19.60
2019-04-23T10:44:55.428Z,20.00
2019-04-23T10:48:12.266Z,20.00
2019-04-23T10:50:49.642Z,20.20
2019-04-23T10:53:26.143Z,20.00
2019-04-23T10:56:00.954Z,19.70
2019-04-23T10:58:16.441Z,19.70
2019-04-23T11:00:51.005Z,19.60
2019-04-23T11:03:32.053Z,19.90
2019-04-23T11:05:51.717Z,20.20
2019-04-23T11:08:13.170Z,20.20
2019-04-23T11:10:46.289Z,20.20
2019-04-23T11:13:19.370Z,20.30
2019-04-23T11:15:55.760Z,20.40
2019-04-23T11:18:14.201Z,20.20
2019-04-23T11:21:05.349Z,20.50
2019-04-23T11:23:12.989Z,20.50
2019-04-23T11:25:42.836Z,20.50
2019-04-23T11:28:21.177Z,20.40
2019-04-23T11:30:45.244Z,20.20
2019-04-23T11:33:21.378Z,19.70
2019-04-23T11:36:37.965Z,19.80
2019-04-23T11:40:55.352Z,19.80
2019-04-23T11:43:28.093Z,19.90
2019-04-23T11:45:57.107Z,20.00
2019-04-23T11:51:27.967Z,20.20
2019-04-23T11:53:27.951Z,20.40
2019-04-23T11:55:53.791Z,20.40
2019-04-23T11:58:32.018Z,20.40
2019-04-23T12:01:37.496Z,20.60
2019-04-23T12:04:14.060Z,20.70
2019-04-23T12:06:52.483Z,20.90
2019-04-23T12:09:36.845Z,20.80
2019-04-23T12:17:15.392Z,21.90
2019-04-23T12:22:15.564Z,22.00
2019-04-23T12:29:37.482Z,21.90
2019-04-23T12:35:01.539Z,21.80
2019-04-23T12:37:41.269Z,21.90
2019-04-23T12:42:52.226Z,22.50
2019-04-23T12:45:03.554Z,22.80
2019-04-23T12:47:50.067Z,22.50
2019-04-23T12:50:38.047Z,22.00
2019-04-23T12:55:06.758Z,22.10
2019-04-23T13:00:00.342Z,22.40
2019-04-23T13:05:05.939Z,22.30
2019-04-23T13:07:33.535Z,22.60
2019-04-23T13:13:00.348Z,23.00
2019-04-23T13:15:05.607Z,22.90
2019-04-23T13:22:43.027Z,23.00
2019-04-23T13:25:03.536Z,22.90
2019-04-23T13:27:49.619Z,22.30
2019-04-23T13:30:16.907Z,22.50
2019-04-23T13:32:46.520Z,22.60
2019-04-23T13:35:25.581Z,22.60
2019-04-23T13:37:46.387Z,22.60
2019-04-23T13:40:09.193Z,22.40
2019-04-23T13:42:44.817Z,22.40
2019-04-23T13:45:18.629Z,22.50
2019-04-23T13:50:27.889Z,22.20
2019-04-23T14:00:20.593Z,22.00
2019-04-23T14:05:12.413Z,21.80
2019-04-23T14:07:48.481Z,22.00
2019-04-23T14:15:19.342Z,21.90
2019-04-23T14:18:16.120Z,21.90
2019-04-23T14:27:57.722Z,21.80
2019-04-23T14:30:24.234Z,21.70
2019-04-23T14:33:12.249Z,21.70
2019-04-23T14:35:36.559Z,21.80
2019-04-23T14:38:02.391Z,21.60
2019-04-23T14:43:10.932Z,21.40
2019-04-23T14:45:47.081Z,21.10
2019-04-23T14:48:02.792Z,21.30
2019-04-23T14:55:53.125Z,21.30
2019-04-23T14:58:10.463Z,21.00
2019-04-23T15:00:31.383Z,21.30
2019-04-23T15:03:01.538Z,21.30
2019-04-23T15:05:28.403Z,21.30
2019-04-23T15:07:58.187Z,21.10
2019-04-23T15:15:26.812Z,21.00
2019-04-23T15:18:01.852Z,21.00
2019-04-23T15:20:33.633Z,20.90
2019-04-23T15:23:19.670Z,21.00
2019-04-23T15:27:47.811Z,21.10
2019-04-23T15:30:24.982Z,21.00
2019-04-23T15:36:04.176Z,20.90
2019-04-23T15:40:24.906Z,21.00
2019-04-23T15:43:02.512Z,21.00
2019-04-23T15:45:28.469Z,20.90
2019-04-23T15:48:03.204Z,20.90
2019-04-23T15:50:27.196Z,20.90
2019-04-23T15:52:58.193Z,20.90
2019-04-23T15:55:28.278Z,20.90
2019-04-23T15:58:19.458Z,20.80
2019-04-23T16:00:24.960Z,20.90
2019-04-23T16:02:30.800Z,20.90
2019-04-23T16:05:00.123Z,20.90
2019-04-23T16:07:44.109Z,20.90
2019-04-23T16:13:05.814Z,20.90
2019-04-23T16:15:35.518Z,20.90
2019-04-23T16:18:23.578Z,20.80
2019-04-23T16:23:15.239Z,20.80
2019-04-23T16:25:43.212Z,20.90
2019-04-23T16:28:18.836Z,20.90
2019-04-23T16:30:49.090Z,20.90
2019-04-23T16:33:13.115Z,20.90
2019-04-23T16:40:54.677Z,20.80
2019-04-23T16:43:35.621Z,20.80
2019-04-23T16:46:01.606Z,20.80
2019-04-23T16:48:35.045Z,20.70
2019-04-23T16:56:01.095Z,20.60
2019-04-23T16:58:36.812Z,20.70
2019-04-23T17:03:26.494Z,20.50
2019-04-23T17:06:08.647Z,20.40
2019-04-23T17:08:45.274Z,20.40
2019-04-23T17:11:00.632Z,20.50
2019-04-23T17:13:34.543Z,20.40
2019-04-23T17:18:34.727Z,20.20
2019-04-23T17:20:56.674Z,20.20
2019-04-23T17:33:43.947Z,20.00
2019-04-23T17:39:07.068Z,20.00
2019-04-23T17:42:00.117Z,19.90
2019-04-23T17:44:23.542Z,19.90
2019-04-23T17:46:54.134Z,19.90
2019-04-23T17:49:21.893Z,19.80
2019-04-23T17:51:53.806Z,19.70
2019-04-23T17:54:25.068Z,19.70
2019-04-23T17:59:46.481Z,19.70
2019-04-23T18:02:16.521Z,19.70
2019-04-23T18:04:29.529Z,19.80
2019-04-23T18:09:27.551Z,19.70
2019-04-23T18:11:53.888Z,19.60
2019-04-23T18:14:16.471Z,19.70
2019-04-23T18:19:16.925Z,19.50
2019-04-23T18:24:37.772Z,19.50
2019-04-23T18:27:13.074Z,19.30
2019-04-23T18:29:45.893Z,19.50
2019-04-23T18:32:16.151Z,19.60
2019-04-23T18:34:59.643Z,19.60
2019-04-23T18:37:17.953Z,19.50
2019-04-23T18:39:56.547Z,19.30
2019-04-23T18:47:30.302Z,19.30
2019-04-23T18:52:26.107Z,19.10
2019-04-23T18:54:42.138Z,19.20
2019-04-23T18:57:33.276Z,19.10
2019-04-23T19:02:23.906Z,19.00
2019-04-23T19:05:15.125Z,19.00
2019-04-23T19:13:04.416Z,18.90
2019-04-23T19:15:33.745Z,18.90
2019-04-23T19:18:06.038Z,18.90
2019-04-23T19:22:58.579Z,18.80
2019-04-23T19:27:59.357Z,18.70
2019-04-23T19:30:38.866Z,18.60
2019-04-23T19:33:16.669Z,18.70
2019-04-23T19:35:59.807Z,18.70
2019-04-23T19:38:13.414Z,18.60
2019-04-23T19:40:49.373Z,18.50
2019-04-23T19:50:49.058Z,18.20
2019-04-23T19:55:51.376Z,18.20
2019-04-23T19:58:19.070Z,18.20
2019-04-23T20:00:55.290Z,18.10
2019-04-23T20:05:49.888Z,18.00
2019-04-23T20:08:13.076Z,18.10
2019-04-23T20:10:39.269Z,18.10
2019-04-23T20:13:13.508Z,18.10
2019-04-23T20:15:59.295Z,18.00
2019-04-23T20:18:05.796Z,17.90
2019-04-23T20:23:15.375Z,17.90
2019-04-23T20:28:51.412Z,18.00
2019-04-23T20:31:16.463Z,17.90
2019-04-23T20:36:25.993Z,17.80
2019-04-23T20:38:53.512Z,17.80
2019-04-23T20:41:28.212Z,17.70
2019-04-23T20:43:49.020Z,17.60
2019-04-23T20:46:14.368Z,17.60
2019-04-23T20:49:03.495Z,17.50
2019-04-23T20:51:14.226Z,17.60
2019-04-23T20:53:46.973Z,17.60
2019-04-23T20:56:29.586Z,17.50
2019-04-23T20:59:03.334Z,17.60
2019-04-23T21:01:30.555Z,17.60
2019-04-23T21:03:54.955Z,17.50
2019-04-23T21:06:29.264Z,17.40
2019-04-23T21:09:23.690Z,17.30
2019-04-23T21:11:31.079Z,17.30
2019-04-23T21:14:12.459Z,17.50
2019-04-23T21:19:13.178Z,17.50
2019-04-23T21:21:27.802Z,17.40
2019-04-23T21:23:56.742Z,17.30
2019-04-23T21:26:25.169Z,17.30
2019-04-23T21:29:02.589Z,17.30
2019-04-23T21:31:30.617Z,17.30
2019-04-23T21:34:05.774Z,17.20
2019-04-23T21:39:23.042Z,17.20
2019-04-23T21:41:57.957Z,17.20
2019-04-23T21:44:18.106Z,17.00
2019-04-23T21:46:55.303Z,17.00
2019-04-23T21:54:21.307Z,16.90
2019-04-23T21:56:54.011Z,17.10
2019-04-23T21:59:17.379Z,17.10
2019-04-23T22:01:54.187Z,16.90
2019-04-23T22:06:52.952Z,16.70
2019-04-23T22:09:27.130Z,16.60
2019-04-23T22:12:09.790Z,16.60
2019-04-23T22:14:27.577Z,16.80
2019-04-23T22:19:19.759Z,16.70
2019-04-23T22:21:59.650Z,16.60
2019-04-23T22:24:19.862Z,16.60
2019-04-23T22:26:53.433Z,16.50
2019-04-23T22:29:37.974Z,16.50
2019-04-23T22:37:14.834Z,16.50
2019-04-23T22:39:34.344Z,16.50
2019-04-23T22:42:08.853Z,16.50
2019-04-23T22:44:42.599Z,16.50
2019-04-23T22:47:03.984Z,16.40
2019-04-23T22:49:47.739Z,16.30
2019-04-23T22:52:09.888Z,16.40
2019-04-23T22:54:49.510Z,16.30
2019-04-23T22:57:04.904Z,16.30
2019-04-23T23:00:00.843Z,16.30
2019-04-23T23:02:41.248Z,16.20
2019-04-23T23:05:10.035Z,16.20
2019-04-23T23:07:39.337Z,16.20
2019-04-23T23:10:07.004Z,16.20
2019-04-23T23:12:46.703Z,16.10
2019-04-23T23:15:03.094Z,16.20
2019-04-23T23:17:31.011Z,16.20
2019-04-23T23:20:11.711Z,16.20
2019-04-23T23:22:27.515Z,16.10
2019-04-23T23:25:09.838Z,16.00
2019-04-23T23:27:29.954Z,16.00
2019-04-23T23:30:05.164Z,15.90
2019-04-23T23:32:30.585Z,15.90
2019-04-23T23:35:14.528Z,15.80
2019-04-23T23:37:28.416Z,15.90
2019-04-23T23:40:14.705Z,15.90
2019-04-23T23:42:34.703Z,16.00
2019-04-23T23:45:12.815Z,15.90
2019-04-23T23:47:29.789Z,15.80
2019-04-23T23:52:39.300Z,15.70
2019-04-23T23:55:08.265Z,15.70
